Barking Sands Airport Kekaha US
ICAO: PHBK
IATA:
Category: Medium
Scheduled Services:

Elevation: 23 ft
TransAlt. 18000 ft.

Airport Communications:
HONOLULU CNTR:126.5
RANGE OUTRIDER:32.285
TWR:126.2
UNICOM:122.8

PHBK Zoom In..

If you have problems with the map follow the link
https://www.worldairports.se/pages/airport.php?
ICAO=PHBK

Runways:

(A) RW 16 length 6002 ft width 146 ft
---- / hdg 160

(B) RW 34 length 6002 ft width 146 ft
---- / hdg 340

Location; PHBK
Day. 18 / Time. 06.56 Zulu
* Altimeter: 29.96
* Temperature: 24° c. 75.2°f.
* Wind from: 000° Speed 00 kn.
Dewpoint: 19° c.
Visibility: 10 Statute Miles.
Clouds: Broken 5000 ft.

PHBK 180656Z AUTO 00000KT 10SM BKN050 24/19 A2996 RMK AO2 SLP149 T02440189


Wind - Calm.

 
 
jpsmedia.com for Web Design worldairports.se 2018   terms of use